Groton Long Point, Connecticut
Current Conditions -  °F | °C
As of 8:56 PM on Saturday 20 Dec 2014 (Local Time) from KGON Reporting Station
Overcast Overcast  
Wind Chill: 25°   Ceiling: 5000
Heat Index: 33°   Visibility: 8mi
Dew Point: 27°   Wind: 9mph
Humidity: 78%   Direction: 20°NNE
Pressure: 30.26"   Gusts: NA
Location:  41.3595°N, 72.0439°W
Report Text: KGON 210156Z 02008KT 8SM OVC050 01/M03 A3026 RMK AO2 SLP247 T00061028
Loading
Personal Weather Stations






























Interactive Weather Map New forecast layout! Learn more

10-Day Weather Forecast

Advertisements
Track Severe Weather on mobile